sensor_id;sensor_type;location;lat;lon;timestamp;pressure;altitude;pressure_sealevel;temperature;humidity
72921;BME280;61064;51.654;5.476;2022-12-10T00:01:50;100963.03;;;-1.39;86.83
72921;BME280;61064;51.654;5.476;2022-12-10T00:04:17;100944.94;;;-1.52;86.72
72921;BME280;61064;51.654;5.476;2022-12-10T00:06:46;100933.91;;;-1.62;86.50
72921;BME280;61064;51.654;5.476;2022-12-10T00:09:17;100966.75;;;-1.35;86.85
72921;BME280;61064;51.654;5.476;2022-12-10T00:11:42;100950.50;;;-1.46;86.57
72921;BME280;61064;51.654;5.476;2022-12-10T00:14:09;100964.94;;;-1.36;86.61
72921;BME280;61064;51.654;5.476;2022-12-10T00:16:36;100901.91;;;-1.75;86.84
72921;BME280;61064;51.654;5.476;2022-12-10T00:19:02;100967.63;;;-1.35;86.88
72921;BME280;61064;51.654;5.476;2022-12-10T00:21:30;100973.81;;;-1.33;86.90
72921;BME280;61064;51.654;5.476;2022-12-10T00:23:56;100958.38;;;-1.44;86.85
72921;BME280;61064;51.654;5.476;2022-12-10T00:26:31;100952.53;;;-1.40;86.91
72921;BME280;61064;51.654;5.476;2022-12-10T00:28:57;100964.28;;;-1.32;86.75
72921;BME280;61064;51.654;5.476;2022-12-10T00:31:28;100950.00;;;-1.39;87.00
72921;BME280;61064;51.654;5.476;2022-12-10T00:33:58;100916.84;;;-1.56;87.09
72921;BME280;61064;51.654;5.476;2022-12-10T00:36:30;100944.72;;;-1.40;87.02
72921;BME280;61064;51.654;5.476;2022-12-10T00:38:56;100983.22;;;-1.20;86.98
72921;BME280;61064;51.654;5.476;2022-12-10T00:41:22;100978.00;;;-1.20;87.00
72921;BME280;61064;51.654;5.476;2022-12-10T00:43:48;100966.19;;;-1.30;86.88
72921;BME280;61064;51.654;5.476;2022-12-10T00:46:15;100966.09;;;-1.31;86.84
72921;BME280;61064;51.654;5.476;2022-12-10T00:48:41;100970.19;;;-1.20;87.04
72921;BME280;61064;51.654;5.476;2022-12-10T00:51:19;100965.78;;;-1.21;87.19
72921;BME280;61064;51.654;5.476;2022-12-10T00:53:46;100966.59;;;-1.22;87.03
72921;BME280;61064;51.654;5.476;2022-12-10T00:56:14;100975.31;;;-1.21;87.07
72921;BME280;61064;51.654;5.476;2022-12-10T00:58:40;100947.00;;;-1.30;87.04
72921;BME280;61064;51.654;5.476;2022-12-10T01:01:16;100967.31;;;-1.24;87.21
72921;BME280;61064;51.654;5.476;2022-12-10T01:03:43;100942.44;;;-1.34;87.17
72921;BME280;61064;51.654;5.476;2022-12-10T01:06:16;100963.72;;;-1.27;87.04
72921;BME280;61064;51.654;5.476;2022-12-10T01:08:43;100943.06;;;-1.38;87.16
72921;BME280;61064;51.654;5.476;2022-12-10T01:11:10;100934.25;;;-1.56;87.29
72921;BME280;61064;51.654;5.476;2022-12-10T01:13:36;100962.41;;;-1.35;87.00
72921;BME280;61064;51.654;5.476;2022-12-10T01:16:07;100935.06;;;-1.57;87.20
72921;BME280;61064;51.654;5.476;2022-12-10T01:18:32;100868.34;;;-1.99;87.05
72921;BME280;61064;51.654;5.476;2022-12-10T01:21:06;100861.59;;;-1.96;87.07
72921;BME280;61064;51.654;5.476;2022-12-10T01:23:37;100949.50;;;-1.48;87.17
72921;BME280;61064;51.654;5.476;2022-12-10T01:26:15;100961.09;;;-1.43;87.46
72921;BME280;61064;51.654;5.476;2022-12-10T01:28:42;100931.53;;;-1.58;87.47
72921;BME280;61064;51.654;5.476;2022-12-10T01:31:11;100944.75;;;-1.55;87.24
72921;BME280;61064;51.654;5.476;2022-12-10T01:33:37;100950.59;;;-1.59;87.58
72921;BME280;61064;51.654;5.476;2022-12-10T01:36:07;100967.03;;;-1.45;87.60
72921;BME280;61064;51.654;5.476;2022-12-10T01:38:33;100932.00;;;-1.65;87.56
72921;BME280;61064;51.654;5.476;2022-12-10T01:41:00;100971.38;;;-1.46;87.71
72921;BME280;61064;51.654;5.476;2022-12-10T01:43:25;100945.53;;;-1.56;87.45
72921;BME280;61064;51.654;5.476;2022-12-10T01:45:51;100971.44;;;-1.44;87.40
72921;BME280;61064;51.654;5.476;2022-12-10T01:48:17;100951.75;;;-1.54;87.53
72921;BME280;61064;51.654;5.476;2022-12-10T01:50:43;100896.00;;;-1.87;87.33
72921;BME280;61064;51.654;5.476;2022-12-10T01:53:09;100907.50;;;-1.83;87.67
72921;BME280;61064;51.654;5.476;2022-12-10T01:55:47;100976.63;;;-1.44;87.61
72921;BME280;61064;51.654;5.476;2022-12-10T01:58:16;100983.66;;;-1.43;87.64
72921;BME280;61064;51.654;5.476;2022-12-10T02:00:54;100983.50;;;-1.46;87.59
72921;BME280;61064;51.654;5.476;2022-12-10T02:03:51;100962.28;;;-1.52;87.64
72921;BME280;61064;51.654;5.476;2022-12-10T02:06:20;100985.81;;;-1.36;87.46
72921;BME280;61064;51.654;5.476;2022-12-10T02:09:15;100916.31;;;-1.81;87.41
72921;BME280;61064;51.654;5.476;2022-12-10T02:11:58;100881.63;;;-1.95;87.81
72921;BME280;61064;51.654;5.476;2022-12-10T02:14:32;100990.56;;;-1.29;87.88
72921;BME280;61064;51.654;5.476;2022-12-10T02:17:06;100992.44;;;-1.27;87.56
72921;BME280;61064;51.654;5.476;2022-12-10T02:19:56;100987.31;;;-1.25;87.73
72921;BME280;61064;51.654;5.476;2022-12-10T02:22:26;100988.84;;;-1.29;87.48
72921;BME280;61064;51.654;5.476;2022-12-10T02:24:54;100968.34;;;-1.37;87.75
72921;BME280;61064;51.654;5.476;2022-12-10T02:27:31;100970.31;;;-1.33;87.99
72921;BME280;61064;51.654;5.476;2022-12-10T02:30:02;100983.16;;;-1.21;87.75
72921;BME280;61064;51.654;5.476;2022-12-10T02:32:38;100927.13;;;-1.59;87.70
72921;BME280;61064;51.654;5.476;2022-12-10T02:35:15;100926.88;;;-1.63;87.59
72921;BME280;61064;51.654;5.476;2022-12-10T02:37:49;100840.97;;;-2.07;87.65
72921;BME280;61064;51.654;5.476;2022-12-10T02:40:20;100981.09;;;-1.27;87.62
72921;BME280;61064;51.654;5.476;2022-12-10T02:42:49;100961.09;;;-1.43;87.54
72921;BME280;61064;51.654;5.476;2022-12-10T02:45:16;100943.38;;;-1.48;87.77
72921;BME280;61064;51.654;5.476;2022-12-10T02:47:43;100967.91;;;-1.45;87.61
72921;BME280;61064;51.654;5.476;2022-12-10T02:50:10;100903.28;;;-1.81;88.00
72921;BME280;61064;51.654;5.476;2022-12-10T02:52:37;100981.94;;;-1.43;88.07
72921;BME280;61064;51.654;5.476;2022-12-10T02:55:03;100970.28;;;-1.49;87.92
72921;BME280;61064;51.654;5.476;2022-12-10T03:11:32;100993.78;;;-1.64;87.89
72921;BME280;61064;51.654;5.476;2022-12-10T03:14:17;100980.03;;;-1.76;88.00
72921;BME280;61064;51.654;5.476;2022-12-10T03:16:50;100962.25;;;-1.83;87.73
72921;BME280;61064;51.654;5.476;2022-12-10T03:19:21;100981.59;;;-1.80;88.18
72921;BME280;61064;51.654;5.476;2022-12-10T03:21:51;100988.06;;;-1.73;88.17
72921;BME280;61064;51.654;5.476;2022-12-10T03:24:18;100957.75;;;-2.00;87.81
72921;BME280;61064;51.654;5.476;2022-12-10T03:26:47;100988.78;;;-1.90;88.17
72921;BME280;61064;51.654;5.476;2022-12-10T03:29:21;100968.41;;;-2.12;87.89
72921;BME280;61064;51.654;5.476;2022-12-10T03:31:47;100932.97;;;-2.38;88.22
72921;BME280;61064;51.654;5.476;2022-12-10T03:34:14;100923.28;;;-2.40;88.53
72921;BME280;61064;51.654;5.476;2022-12-10T03:36:40;100975.22;;;-2.14;88.47
72921;BME280;61064;51.654;5.476;2022-12-10T03:39:07;100925.69;;;-2.43;88.57
72921;BME280;61064;51.654;5.476;2022-12-10T03:41:32;100923.91;;;-2.44;88.71
72921;BME280;61064;51.654;5.476;2022-12-10T03:43:59;100999.66;;;-1.97;88.73
72921;BME280;61064;51.654;5.476;2022-12-10T03:46:29;100961.19;;;-2.16;88.85
72921;BME280;61064;51.654;5.476;2022-12-10T03:48:56;100929.94;;;-2.31;88.83
72921;BME280;61064;51.654;5.476;2022-12-10T03:51:22;100991.41;;;-1.90;88.94
72921;BME280;61064;51.654;5.476;2022-12-10T03:53:47;100988.59;;;-1.93;88.52
72921;BME280;61064;51.654;5.476;2022-12-10T03:56:15;101001.72;;;-1.92;88.62
72921;BME280;61064;51.654;5.476;2022-12-10T03:58:41;100913.47;;;-2.44;88.26
72921;BME280;61064;51.654;5.476;2022-12-10T04:01:08;100871.88;;;-2.72;88.48
72921;BME280;61064;51.654;5.476;2022-12-10T04:03:38;100859.25;;;-2.81;88.67
72921;BME280;61064;51.654;5.476;2022-12-10T04:06:08;101010.34;;;-1.93;88.84
72921;BME280;61064;51.654;5.476;2022-12-10T04:08:34;100966.78;;;-2.25;88.54
72921;BME280;61064;51.654;5.476;2022-12-10T04:11:08;100966.13;;;-2.21;88.87
72921;BME280;61064;51.654;5.476;2022-12-10T04:13:36;100955.00;;;-2.18;88.82
72921;BME280;61064;51.654;5.476;2022-12-10T04:16:21;101017.75;;;-1.86;88.92
72921;BME280;61064;51.654;5.476;2022-12-10T04:19:08;100901.91;;;-2.49;88.75
72921;BME280;61064;51.654;5.476;2022-12-10T04:21:35;101010.28;;;-1.80;88.97
72921;BME280;61064;51.654;5.476;2022-12-10T04:24:28;100984.53;;;-1.88;88.87
72921;BME280;61064;51.654;5.476;2022-12-10T04:27:21;101011.44;;;-1.75;89.05
72921;BME280;61064;51.654;5.476;2022-12-10T04:29:47;100999.84;;;-1.80;88.78
72921;BME280;61064;51.654;5.476;2022-12-10T04:32:14;101009.72;;;-1.74;88.92
72921;BME280;61064;51.654;5.476;2022-12-10T04:34:39;100977.00;;;-1.98;89.04
72921;BME280;61064;51.654;5.476;2022-12-10T04:37:05;101005.66;;;-1.84;88.87
72921;BME280;61064;51.654;5.476;2022-12-10T04:39:31;101020.16;;;-1.74;88.89
72921;BME280;61064;51.654;5.476;2022-12-10T04:41:57;101014.69;;;-1.79;88.92
72921;BME280;61064;51.654;5.476;2022-12-10T04:44:22;101021.97;;;-1.73;89.00
72921;BME280;61064;51.654;5.476;2022-12-10T04:46:48;100889.59;;;-2.52;88.97
72921;BME280;61064;51.654;5.476;2022-12-10T04:49:14;100871.03;;;-2.58;88.88
72921;BME280;61064;51.654;5.476;2022-12-10T04:51:41;101026.44;;;-1.71;88.85
72921;BME280;61064;51.654;5.476;2022-12-10T04:54:07;100928.41;;;-2.27;89.28
72921;BME280;61064;51.654;5.476;2022-12-10T04:56:33;100927.50;;;-2.28;88.90
72921;BME280;61064;51.654;5.476;2022-12-10T04:59:01;101001.72;;;-1.77;89.18
72921;BME280;61064;51.654;5.476;2022-12-10T05:01:30;100887.97;;;-2.50;88.92
72921;BME280;61064;51.654;5.476;2022-12-10T05:03:59;101022.47;;;-1.64;89.43
72921;BME280;61064;51.654;5.476;2022-12-10T05:06:24;100975.75;;;-1.90;89.18
72921;BME280;61064;51.654;5.476;2022-12-10T05:08:52;100965.13;;;-1.93;89.01
72921;BME280;61064;51.654;5.476;2022-12-10T05:11:21;101024.63;;;-1.72;88.88
72921;BME280;61064;51.654;5.476;2022-12-10T05:13:49;101001.34;;;-1.83;89.02
72921;BME280;61064;51.654;5.476;2022-12-10T05:16:18;101032.91;;;-1.64;89.21
72921;BME280;61064;51.654;5.476;2022-12-10T05:18:47;101036.31;;;-1.65;89.32
72921;BME280;61064;51.654;5.476;2022-12-10T05:21:15;100965.53;;;-2.02;89.23
72921;BME280;61064;51.654;5.476;2022-12-10T05:23:46;101027.69;;;-1.64;89.28
72921;BME280;61064;51.654;5.476;2022-12-10T05:26:23;100866.25;;;-2.51;88.98
72921;BME280;61064;51.654;5.476;2022-12-10T05:28:52;100969.72;;;-1.89;89.52
72921;BME280;61064;51.654;5.476;2022-12-10T05:31:23;100975.03;;;-1.88;89.45
72921;BME280;61064;51.654;5.476;2022-12-10T05:33:53;100904.59;;;-2.33;88.99
72921;BME280;61064;51.654;5.476;2022-12-10T05:36:21;100977.63;;;-1.88;89.36
72921;BME280;61064;51.654;5.476;2022-12-10T05:38:47;100878.47;;;-2.49;89.29
72921;BME280;61064;51.654;5.476;2022-12-10T05:41:14;101039.28;;;-1.59;89.45
72921;BME280;61064;51.654;5.476;2022-12-10T05:43:40;101028.34;;;-1.68;89.26
72921;BME280;61064;51.654;5.476;2022-12-10T05:46:10;101022.03;;;-1.72;89.52
72921;BME280;61064;51.654;5.476;2022-12-10T05:48:36;100980.41;;;-1.99;89.08
72921;BME280;61064;51.654;5.476;2022-12-10T05:51:07;100993.72;;;-1.95;89.36
72921;BME280;61064;51.654;5.476;2022-12-10T05:53:32;101037.22;;;-1.64;89.60
72921;BME280;61064;51.654;5.476;2022-12-10T05:56:07;100912.25;;;-2.36;89.04
72921;BME280;61064;51.654;5.476;2022-12-10T05:58:33;100893.47;;;-2.45;89.50
72921;BME280;61064;51.654;5.476;2022-12-10T06:00:59;101038.03;;;-1.65;89.43
72921;BME280;61064;51.654;5.476;2022-12-10T06:03:27;100967.31;;;-2.01;89.53
72921;BME280;61064;51.654;5.476;2022-12-10T06:05:53;101031.09;;;-1.65;89.45
72921;BME280;61064;51.654;5.476;2022-12-10T06:08:19;100971.69;;;-2.00;89.59
72921;BME280;61064;51.654;5.476;2022-12-10T06:10:44;100987.25;;;-1.87;89.50
72921;BME280;61064;51.654;5.476;2022-12-10T06:13:10;101037.59;;;-1.58;89.47
72921;BME280;61064;51.654;5.476;2022-12-10T06:15:39;100887.00;;;-2.37;89.74
72921;BME280;61064;51.654;5.476;2022-12-10T06:18:04;100973.16;;;-1.90;89.50
72921;BME280;61064;51.654;5.476;2022-12-10T06:20:37;100990.38;;;-1.78;89.60
72921;BME280;61064;51.654;5.476;2022-12-10T06:23:02;100933.53;;;-2.14;89.41
72921;BME280;61064;51.654;5.476;2022-12-10T06:25:28;100945.09;;;-2.09;89.50
72921;BME280;61064;51.654;5.476;2022-12-10T06:27:53;100961.09;;;-2.03;89.51
72921;BME280;61064;51.654;5.476;2022-12-10T06:30:18;100917.72;;;-2.32;89.55
72921;BME280;61064;51.654;5.476;2022-12-10T06:32:44;100903.69;;;-2.34;89.50
72921;BME280;61064;51.654;5.476;2022-12-10T06:35:10;100957.50;;;-2.05;89.45
72921;BME280;61064;51.654;5.476;2022-12-10T06:37:35;101044.13;;;-1.50;89.81
72921;BME280;61064;51.654;5.476;2022-12-10T06:40:01;100928.84;;;-2.20;89.93
72921;BME280;61064;51.654;5.476;2022-12-10T06:42:27;100988.78;;;-1.90;89.89
72921;BME280;61064;51.654;5.476;2022-12-10T06:44:52;100993.09;;;-1.91;89.87
72921;BME280;61064;51.654;5.476;2022-12-10T06:47:18;101008.03;;;-1.74;89.71
72921;BME280;61064;51.654;5.476;2022-12-10T06:49:43;101047.56;;;-1.51;89.77
72921;BME280;61064;51.654;5.476;2022-12-10T06:52:09;101053.59;;;-1.52;89.85
72921;BME280;61064;51.654;5.476;2022-12-10T06:54:34;101050.88;;;-1.54;89.54
72921;BME280;61064;51.654;5.476;2022-12-10T06:57:03;101039.19;;;-1.60;89.85
72921;BME280;61064;51.654;5.476;2022-12-10T06:59:28;101048.63;;;-1.48;89.80
72921;BME280;61064;51.654;5.476;2022-12-10T07:01:54;100940.06;;;-2.06;89.48
72921;BME280;61064;51.654;5.476;2022-12-10T07:04:19;100931.72;;;-2.15;89.69
72921;BME280;61064;51.654;5.476;2022-12-10T07:06:44;101015.19;;;-1.70;89.58
72921;BME280;61064;51.654;5.476;2022-12-10T07:09:10;101056.00;;;-1.41;89.77
72921;BME280;61064;51.654;5.476;2022-12-10T07:11:36;100931.19;;;-2.10;89.58
72921;BME280;61064;51.654;5.476;2022-12-10T07:14:02;101018.25;;;-1.62;89.68
72921;BME280;61064;51.654;5.476;2022-12-10T07:16:30;100980.50;;;-1.83;89.65
72921;BME280;61064;51.654;5.476;2022-12-10T07:18:58;100987.09;;;-1.90;89.75
72921;BME280;61064;51.654;5.476;2022-12-10T07:21:29;101073.72;;;-1.35;89.84
72921;BME280;61064;51.654;5.476;2022-12-10T07:24:00;101076.41;;;-1.34;89.44
72921;BME280;61064;51.654;5.476;2022-12-10T07:26:28;101044.97;;;-1.51;89.81
72921;BME280;61064;51.654;5.476;2022-12-10T07:28:54;100953.03;;;-2.07;89.89
72921;BME280;61064;51.654;5.476;2022-12-10T07:31:21;100998.03;;;-1.81;89.76
72921;BME280;61064;51.654;5.476;2022-12-10T07:33:46;101057.38;;;-1.47;89.50
72921;BME280;61064;51.654;5.476;2022-12-10T07:36:12;100968.94;;;-2.03;89.67
72921;BME280;61064;51.654;5.476;2022-12-10T07:38:40;101033.34;;;-1.71;89.75
72921;BME280;61064;51.654;5.476;2022-12-10T07:41:08;101032.91;;;-1.64;89.76
72921;BME280;61064;51.654;5.476;2022-12-10T07:43:36;100956.06;;;-2.15;89.56
72921;BME280;61064;51.654;5.476;2022-12-10T07:46:07;101100.19;;;-1.29;90.02
72921;BME280;61064;51.654;5.476;2022-12-10T07:48:34;101088.56;;;-1.34;89.81
72921;BME280;61064;51.654;5.476;2022-12-10T07:50:59;101010.00;;;-1.84;89.97
72921;BME280;61064;51.654;5.476;2022-12-10T07:53:25;100968.13;;;-2.02;89.85
72921;BME280;61064;51.654;5.476;2022-12-10T07:55:51;100971.09;;;-1.96;89.75
72921;BME280;61064;51.654;5.476;2022-12-10T07:58:16;101114.19;;;-1.27;90.10
72921;BME280;61064;51.654;5.476;2022-12-10T08:00:42;101104.09;;;-1.21;90.15
72921;BME280;61064;51.654;5.476;2022-12-10T08:03:07;101007.28;;;-1.71;89.94
72921;BME280;61064;51.654;5.476;2022-12-10T08:05:33;100982.47;;;-1.94;89.88
72921;BME280;61064;51.654;5.476;2022-12-10T08:07:58;100979.72;;;-1.97;89.68
72921;BME280;61064;51.654;5.476;2022-12-10T08:10:23;101065.00;;;-1.50;89.80
72921;BME280;61064;51.654;5.476;2022-12-10T08:12:49;101105.00;;;-1.20;89.91
72921;BME280;61064;51.654;5.476;2022-12-10T08:15:14;101093.06;;;-1.32;90.13
72921;BME280;61064;51.654;5.476;2022-12-10T08:17:39;101128.94;;;-1.13;89.77
72921;BME280;61064;51.654;5.476;2022-12-10T08:20:05;101096.03;;;-1.26;90.07
72921;BME280;61064;51.654;5.476;2022-12-10T08:22:31;101116.69;;;-1.14;90.13
72921;BME280;61064;51.654;5.476;2022-12-10T08:24:59;101102.94;;;-1.26;90.08
72921;BME280;61064;51.654;5.476;2022-12-10T08:27:24;101042.69;;;-1.60;89.79
72921;BME280;61064;51.654;5.476;2022-12-10T08:29:50;101073.13;;;-1.46;90.00
72921;BME280;61064;51.654;5.476;2022-12-10T08:32:15;101137.59;;;-1.14;89.93
72921;BME280;61064;51.654;5.476;2022-12-10T08:34:40;101140.00;;;-1.17;89.89
72921;BME280;61064;51.654;5.476;2022-12-10T08:37:06;101066.19;;;-1.60;90.08
72921;BME280;61064;51.654;5.476;2022-12-10T08:39:31;101153.34;;;-1.12;89.98
72921;BME280;61064;51.654;5.476;2022-12-10T08:41:56;101135.44;;;-1.21;89.88
72921;BME280;61064;51.654;5.476;2022-12-10T08:44:22;101141.75;;;-1.17;90.01
72921;BME280;61064;51.654;5.476;2022-12-10T08:46:47;101110.88;;;-1.39;89.94
72921;BME280;61064;51.654;5.476;2022-12-10T08:49:12;101119.25;;;-1.30;90.17
72921;BME280;61064;51.654;5.476;2022-12-10T08:51:38;101145.97;;;-1.19;90.30
72921;BME280;61064;51.654;5.476;2022-12-10T08:54:04;101147.22;;;-1.13;90.35
72921;BME280;61064;51.654;5.476;2022-12-10T08:56:30;101142.56;;;-1.18;90.08
72921;BME280;61064;51.654;5.476;2022-12-10T08:58:55;101119.59;;;-1.24;90.23
72921;BME280;61064;51.654;5.476;2022-12-10T09:01:21;101148.28;;;-1.09;90.21
72921;BME280;61064;51.654;5.476;2022-12-10T09:03:46;101158.03;;;-1.07;90.40
72921;BME280;61064;51.654;5.476;2022-12-10T09:06:15;101158.03;;;-1.07;90.37
72921;BME280;61064;51.654;5.476;2022-12-10T09:08:41;101141.00;;;-1.15;90.35
72921;BME280;61064;51.654;5.476;2022-12-10T09:11:26;101163.31;;;-1.05;90.13
72921;BME280;61064;51.654;5.476;2022-12-10T09:13:52;101157.13;;;-1.07;90.20
72921;BME280;61064;51.654;5.476;2022-12-10T09:16:18;101129.41;;;-1.20;90.30
72921;BME280;61064;51.654;5.476;2022-12-10T09:18:43;101153.59;;;-1.08;90.22
72921;BME280;61064;51.654;5.476;2022-12-10T09:21:12;101146.97;;;-1.17;90.24
72921;BME280;61064;51.654;5.476;2022-12-10T09:23:38;101166.75;;;-1.06;90.31
72921;BME280;61064;51.654;5.476;2022-12-10T09:26:08;101173.41;;;-1.11;90.00
72921;BME280;61064;51.654;5.476;2022-12-10T09:28:35;101141.28;;;-1.25;90.13
72921;BME280;61064;51.654;5.476;2022-12-10T09:31:02;101180.97;;;-1.01;90.43
72921;BME280;61064;51.654;5.476;2022-12-10T09:33:29;101154.97;;;-1.14;90.52
72921;BME280;61064;51.654;5.476;2022-12-10T09:35:58;101180.13;;;-1.00;90.17
72921;BME280;61064;51.654;5.476;2022-12-10T09:38:23;101152.34;;;-1.14;90.30
72921;BME280;61064;51.654;5.476;2022-12-10T09:41:03;101138.13;;;-1.19;90.47
72921;BME280;61064;51.654;5.476;2022-12-10T09:46:12;101186.00;;;-0.90;90.60
72921;BME280;61064;51.654;5.476;2022-12-10T09:49:11;101192.38;;;-0.85;90.63
72921;BME280;61064;51.654;5.476;2022-12-10T09:51:39;101181.09;;;-0.84;90.53
72921;BME280;61064;51.654;5.476;2022-12-10T09:54:38;101184.63;;;-0.83;90.27
72921;BME280;61064;51.654;5.476;2022-12-10T09:57:07;101176.44;;;-0.89;90.24
72921;BME280;61064;51.654;5.476;2022-12-10T09:59:44;101163.75;;;-0.98;90.35
72921;BME280;61064;51.654;5.476;2022-12-10T10:04:46;101202.91;;;-0.83;90.59
72921;BME280;61064;51.654;5.476;2022-12-10T10:07:24;101190.31;;;-0.90;90.37
72921;BME280;61064;51.654;5.476;2022-12-10T10:09:56;101202.00;;;-0.84;90.39
72921;BME280;61064;51.654;5.476;2022-12-10T10:12:23;101184.91;;;-0.93;90.53
72921;BME280;61064;51.654;5.476;2022-12-10T10:14:48;101192.03;;;-0.91;90.29
72921;BME280;61064;51.654;5.476;2022-12-10T10:17:20;101189.88;;;-0.98;90.51
72921;BME280;61064;51.654;5.476;2022-12-10T10:19:46;101194.28;;;-0.97;90.45
72921;BME280;61064;51.654;5.476;2022-12-10T10:22:12;101188.50;;;-1.06;90.17
72921;BME280;61064;51.654;5.476;2022-12-10T10:24:42;101208.50;;;-0.92;90.45
72921;BME280;61064;51.654;5.476;2022-12-10T10:27:18;101179.88;;;-1.05;90.49
72921;BME280;61064;51.654;5.476;2022-12-10T10:29:47;101199.66;;;-0.94;90.30
72921;BME280;61064;51.654;5.476;2022-12-10T10:32:20;101199.38;;;-0.84;90.55
72921;BME280;61064;51.654;5.476;2022-12-10T10:34:57;101204.00;;;-0.79;90.61
72921;BME280;61064;51.654;5.476;2022-12-10T10:37:29;101186.25;;;-0.85;90.49
72921;BME280;61064;51.654;5.476;2022-12-10T10:39:57;101191.53;;;-0.84;90.17
72921;BME280;61064;51.654;5.476;2022-12-10T10:44:58;101133.44;;;-1.10;90.34
72921;BME280;61064;51.654;5.476;2022-12-10T10:47:33;101194.84;;;-0.71;90.49
72921;BME280;61064;51.654;5.476;2022-12-10T10:49:59;101191.69;;;-0.66;90.74
72921;BME280;61064;51.654;5.476;2022-12-10T10:52:37;101176.13;;;-0.64;90.59
72921;BME280;61064;51.654;5.476;2022-12-10T10:55:03;101201.78;;;-0.57;90.69
72921;BME280;61064;51.654;5.476;2022-12-10T10:57:33;101176.28;;;-0.61;90.54
72921;BME280;61064;51.654;5.476;2022-12-10T11:00:07;101187.91;;;-0.56;90.35
72921;BME280;61064;51.654;5.476;2022-12-10T11:02:42;101197.53;;;-0.55;90.46
72921;BME280;61064;51.654;5.476;2022-12-10T11:05:15;101135.13;;;-0.96;90.34
72921;BME280;61064;51.654;5.476;2022-12-10T11:07:42;101194.56;;;-0.61;90.56
72921;BME280;61064;51.654;5.476;2022-12-10T11:10:20;101184.84;;;-0.64;90.38
72921;BME280;61064;51.654;5.476;2022-12-10T11:12:58;101189.19;;;-0.64;90.50
72921;BME280;61064;51.654;5.476;2022-12-10T11:17:55;101191.69;;;-0.66;90.44
72921;BME280;61064;51.654;5.476;2022-12-10T11:20:31;101184.66;;;-0.67;90.54
72921;BME280;61064;51.654;5.476;2022-12-10T11:23:02;101196.31;;;-0.62;90.76
72921;BME280;61064;51.654;5.476;2022-12-10T11:25:38;101181.25;;;-0.66;90.72
72921;BME280;61064;51.654;5.476;2022-12-10T11:30:45;101135.47;;;-0.90;90.45
72921;BME280;61064;51.654;5.476;2022-12-10T11:33:29;101191.78;;;-0.64;90.47
72921;BME280;61064;51.654;5.476;2022-12-10T11:38:58;101190.25;;;-0.61;90.57
72921;BME280;61064;51.654;5.476;2022-12-10T11:44:29;101187.63;;;-0.61;90.59
72921;BME280;61064;51.654;5.476;2022-12-10T11:50:34;101185.84;;;-0.62;90.77
72921;BME280;61064;51.654;5.476;2022-12-10T11:55:21;101184.06;;;-0.63;90.53
72921;BME280;61064;51.654;5.476;2022-12-10T12:01:22;101173.34;;;-0.67;90.53
72921;BME280;61064;51.654;5.476;2022-12-10T12:04:03;101187.00;;;-0.57;90.75
72921;BME280;61064;51.654;5.476;2022-12-10T12:09:49;101176.63;;;-0.55;90.64
72921;BME280;61064;51.654;5.476;2022-12-10T12:17:52;101174.00;;;-0.55;90.48
72921;BME280;61064;51.654;5.476;2022-12-10T12:20:25;101178.44;;;-0.54;90.43
72921;BME280;61064;51.654;5.476;2022-12-10T12:22:57;101182.28;;;-0.48;90.55
72921;BME280;61064;51.654;5.476;2022-12-10T12:25:32;101183.53;;;-0.41;90.44
72921;BME280;61064;51.654;5.476;2022-12-10T12:28:04;101198.66;;;-0.35;90.67
72921;BME280;61064;51.654;5.476;2022-12-10T12:30:34;101195.28;;;-0.33;90.76
72921;BME280;61064;51.654;5.476;2022-12-10T12:33:08;101191.88;;;-0.32;90.76
72921;BME280;61064;51.654;5.476;2022-12-10T12:35:48;101189.25;;;-0.32;90.53
72921;BME280;61064;51.654;5.476;2022-12-10T12:38:31;101182.22;;;-0.33;90.39
72921;BME280;61064;51.654;5.476;2022-12-10T12:41:16;101187.38;;;-0.34;90.34
72921;BME280;61064;51.654;5.476;2022-12-10T12:43:51;101142.59;;;-0.57;90.61
72921;BME280;61064;51.654;5.476;2022-12-10T12:46:27;101170.84;;;-0.50;90.41
72921;BME280;61064;51.654;5.476;2022-12-10T12:52:07;101179.22;;;-0.40;90.67
72921;BME280;61064;51.654;5.476;2022-12-10T12:54:39;101151.38;;;-0.55;90.75
72921;BME280;61064;51.654;5.476;2022-12-10T12:57:18;101187.53;;;-0.31;90.53
72921;BME280;61064;51.654;5.476;2022-12-10T13:00:02;101175.03;;;-0.37;90.70
72921;BME280;61064;51.654;5.476;2022-12-10T13:05:23;101185.25;;;-0.25;90.72
72921;BME280;61064;51.654;5.476;2022-12-10T13:19:32;101188.53;;;-0.29;90.62
72921;BME280;61064;51.654;5.476;2022-12-10T13:22:12;101180.69;;;-0.29;90.76
72921;BME280;61064;51.654;5.476;2022-12-10T13:25:10;101187.53;;;-0.31;90.47
72921;BME280;61064;51.654;5.476;2022-12-10T13:27:36;101187.63;;;-0.30;90.47
72921;BME280;61064;51.654;5.476;2022-12-10T13:30:31;101184.22;;;-0.29;90.71
72921;BME280;61064;51.654;5.476;2022-12-10T13:33:26;101196.44;;;-0.28;90.54
72921;BME280;61064;51.654;5.476;2022-12-10T13:36:09;101190.34;;;-0.28;90.39
72921;BME280;61064;51.654;5.476;2022-12-10T13:38:40;101163.91;;;-0.49;90.43
72921;BME280;61064;51.654;5.476;2022-12-10T13:41:06;101181.72;;;-0.42;90.35
72921;BME280;61064;51.654;5.476;2022-12-10T13:43:58;101192.28;;;-0.40;90.19
72921;BME280;61064;51.654;5.476;2022-12-10T13:49:24;101196.50;;;-0.43;90.25
72921;BME280;61064;51.654;5.476;2022-12-10T13:54:55;101207.16;;;-0.39;90.34
72921;BME280;61064;51.654;5.476;2022-12-10T14:00:35;101214.91;;;-0.41;90.72
72921;BME280;61064;51.654;5.476;2022-12-10T14:08:31;101209.47;;;-0.44;90.37
72921;BME280;61064;51.654;5.476;2022-12-10T14:10:57;101214.34;;;-0.35;90.52
72921;BME280;61064;51.654;5.476;2022-12-10T14:16:15;101207.75;;;-0.44;90.40
72921;BME280;61064;51.654;5.476;2022-12-10T14:18:48;101209.56;;;-0.43;90.73
72921;BME280;61064;51.654;5.476;2022-12-10T14:21:17;101192.59;;;-0.51;90.43
72921;BME280;61064;51.654;5.476;2022-12-10T14:23:45;101232.06;;;-0.30;90.61
72921;BME280;61064;51.654;5.476;2022-12-10T14:26:20;101190.94;;;-0.49;90.44
72921;BME280;61064;51.654;5.476;2022-12-10T14:28:50;101220.53;;;-0.33;90.56
72921;BME280;61064;51.654;5.476;2022-12-10T14:31:21;101228.91;;;-0.24;90.57